createdAt,value
2022-09-10T00:01:59.206Z,20.60
2022-09-10T00:04:25.749Z,20.70
2022-09-10T00:06:52.313Z,20.66
2022-09-10T00:09:19.131Z,20.66
2022-09-10T00:11:46.423Z,20.59
2022-09-10T00:14:17.144Z,20.54
2022-09-10T00:16:44.424Z,20.60
2022-09-10T00:19:11.500Z,20.58
2022-09-10T00:21:38.141Z,20.57
2022-09-10T00:24:05.466Z,20.51
2022-09-10T00:26:39.141Z,20.51
2022-09-10T00:29:08.037Z,20.50
2022-09-10T00:31:35.594Z,20.48
2022-09-10T00:34:02.782Z,20.55
2022-09-10T00:36:33.013Z,20.57
2022-09-10T00:39:04.454Z,20.63
2022-09-10T00:41:31.021Z,20.63
2022-09-10T00:44:04.049Z,20.64
2022-09-10T00:46:48.220Z,20.67
2022-09-10T00:49:18.678Z,20.67
2022-09-10T00:51:47.275Z,20.68
2022-09-10T00:54:17.691Z,20.66
2022-09-10T00:56:45.327Z,20.68
2022-09-10T00:59:16.249Z,20.61
2022-09-10T01:01:43.116Z,20.64
2022-09-10T01:04:10.601Z,20.69
2022-09-10T01:06:41.960Z,20.57
2022-09-10T01:09:09.388Z,20.64
2022-09-10T01:12:08.786Z,20.37
2022-09-10T01:14:54.406Z,20.63
2022-09-10T01:17:45.631Z,20.59
2022-09-10T01:20:30.744Z,20.64
2022-09-10T01:23:41.808Z,20.50
2022-09-10T01:26:31.086Z,20.54
2022-09-10T01:29:08.430Z,20.46
2022-09-10T01:31:41.014Z,20.35
2022-09-10T01:34:18.705Z,20.28
2022-09-10T01:36:48.165Z,20.27
2022-09-10T01:39:18.150Z,20.23
2022-09-10T01:41:45.188Z,20.31
2022-09-10T01:44:48.211Z,20.41
2022-09-10T01:47:43.986Z,20.49
2022-09-10T01:50:36.278Z,20.55
2022-09-10T01:53:14.766Z,20.55
2022-09-10T01:56:27.764Z,20.55
2022-09-10T01:59:03.887Z,20.59
2022-09-10T02:01:45.639Z,20.56
2022-09-10T02:04:15.084Z,20.58
2022-09-10T02:06:46.615Z,20.57
2022-09-10T02:09:15.136Z,20.51
2022-09-10T02:11:56.472Z,20.58
2022-09-10T02:14:23.137Z,20.56
2022-09-10T02:16:55.391Z,20.54
2022-09-10T02:19:22.021Z,20.56
2022-09-10T02:21:48.877Z,20.59
2022-09-10T02:24:15.533Z,20.63
2022-09-10T02:26:44.165Z,20.55
2022-09-10T02:29:13.748Z,20.57
2022-09-10T02:31:41.887Z,20.54
2022-09-10T02:34:08.394Z,20.49
2022-09-10T02:36:35.854Z,20.55
2022-09-10T02:39:04.720Z,20.43
2022-09-10T02:41:33.946Z,20.55
2022-09-10T02:44:04.295Z,20.34
2022-09-10T02:46:31.109Z,20.41
2022-09-10T02:48:57.550Z,20.40
2022-09-10T02:51:25.137Z,20.47
2022-09-10T02:53:51.587Z,20.50
2022-09-10T02:56:19.616Z,20.48
2022-09-10T02:58:46.070Z,20.54
2022-09-10T03:01:20.633Z,20.47
2022-09-10T03:03:58.096Z,20.48
2022-09-10T03:06:26.006Z,20.45
2022-09-10T03:08:55.200Z,20.46
2022-09-10T03:11:27.204Z,20.41
2022-09-10T03:13:54.307Z,20.36
2022-09-10T03:16:21.308Z,20.34
2022-09-10T03:18:47.836Z,20.33
2022-09-10T03:21:20.152Z,20.24
2022-09-10T03:23:49.483Z,20.28
2022-09-10T03:26:18.326Z,20.24
2022-09-10T03:28:45.132Z,20.20
2022-09-10T03:31:13.556Z,20.18
2022-09-10T03:33:41.074Z,20.17
2022-09-10T03:36:13.223Z,20.24
2022-09-10T03:38:40.630Z,20.23
2022-09-10T03:41:07.478Z,20.21
2022-09-10T03:43:35.209Z,20.31
2022-09-10T03:46:02.529Z,20.30
2022-09-10T03:48:29.799Z,20.33
2022-09-10T03:50:56.350Z,20.30
2022-09-10T03:53:23.765Z,20.43
2022-09-10T03:55:50.688Z,20.19
2022-09-10T03:58:18.285Z,20.23
2022-09-10T04:00:46.113Z,20.30
2022-09-10T04:03:14.301Z,20.28
2022-09-10T04:05:43.954Z,20.22
2022-09-10T04:08:12.002Z,20.15
2022-09-10T04:10:39.749Z,20.30
2022-09-10T04:13:06.755Z,20.35
2022-09-10T04:15:33.883Z,20.12
2022-09-10T04:18:00.274Z,20.30
2022-09-10T04:20:27.079Z,20.16
2022-09-10T04:22:54.093Z,20.20
2022-09-10T04:25:21.152Z,20.15
2022-09-10T04:27:48.982Z,20.26
2022-09-10T04:30:16.247Z,20.13
2022-09-10T04:32:42.711Z,20.19
2022-09-10T04:35:09.290Z,20.11
2022-09-10T04:37:35.730Z,20.05
2022-09-10T04:40:02.644Z,20.13
2022-09-10T04:42:31.729Z,20.12
2022-09-10T04:44:59.125Z,20.19
2022-09-10T04:47:26.040Z,20.06
2022-09-10T04:49:52.553Z,20.13
2022-09-10T04:52:22.613Z,20.11
2022-09-10T04:54:49.368Z,20.09
2022-09-10T04:57:16.104Z,20.15
2022-09-10T04:59:42.546Z,19.96
2022-09-10T05:02:09.294Z,19.85
2022-09-10T05:04:36.203Z,19.96
2022-09-10T05:07:02.592Z,19.28
2022-09-10T05:09:31.267Z,19.08
2022-09-10T05:11:58.210Z,19.72
2022-09-10T05:14:25.408Z,19.76
2022-09-10T05:16:51.883Z,19.24
2022-09-10T05:19:18.358Z,19.04
2022-09-10T05:21:45.461Z,19.64
2022-09-10T05:24:12.485Z,19.93
2022-09-10T05:26:39.943Z,19.72
2022-09-10T05:29:06.696Z,19.53
2022-09-10T05:31:35.151Z,19.41
2022-09-10T05:34:01.874Z,19.37
2022-09-10T05:36:28.856Z,19.74
2022-09-10T05:38:55.278Z,20.03
2022-09-10T05:41:21.963Z,19.97
2022-09-10T05:43:48.762Z,20.11
2022-09-10T05:46:15.740Z,20.33
2022-09-10T05:48:42.602Z,20.31
2022-09-10T05:51:09.387Z,20.03
2022-09-10T05:53:35.858Z,20.01
2022-09-10T05:56:02.437Z,20.31
2022-09-10T05:58:30.057Z,20.60
2022-09-10T06:00:58.027Z,20.79
2022-09-10T06:03:24.659Z,20.50
2022-09-10T06:05:51.374Z,20.82
2022-09-10T06:08:21.004Z,20.87
2022-09-10T06:11:02.501Z,20.79
2022-09-10T06:13:28.897Z,20.54
2022-09-10T06:15:55.374Z,20.87
2022-09-10T06:18:22.146Z,20.99
2022-09-10T06:20:49.217Z,20.65
2022-09-10T06:23:16.722Z,20.77
2022-09-10T06:25:44.467Z,20.53
2022-09-10T06:28:12.534Z,21.03
2022-09-10T06:30:39.429Z,20.43
2022-09-10T06:33:05.891Z,20.82
2022-09-10T06:35:33.240Z,21.14
2022-09-10T06:37:59.632Z,20.83
2022-09-10T06:40:29.178Z,21.18
2022-09-10T06:42:55.693Z,20.66
2022-09-10T06:45:22.156Z,21.30
2022-09-10T06:50:35.323Z,21.73
2022-09-10T06:53:01.731Z,21.56
2022-09-10T06:55:28.167Z,21.91
2022-09-10T06:57:54.655Z,21.64
2022-09-10T07:00:22.125Z,22.07
2022-09-10T07:02:50.540Z,22.11
2022-09-10T07:05:16.943Z,21.98
2022-09-10T07:07:43.393Z,22.06
2022-09-10T07:10:09.821Z,22.14
2022-09-10T07:12:36.260Z,21.92
2022-09-10T07:15:02.706Z,22.22
2022-09-10T07:17:31.903Z,21.77
2022-09-10T07:19:58.604Z,22.25
2022-09-10T07:22:25.068Z,22.18
2022-09-10T07:24:51.456Z,22.19
2022-09-10T07:27:18.258Z,21.37
2022-09-10T07:29:44.646Z,21.75
2022-09-10T07:32:13.487Z,22.23
2022-09-10T07:34:40.287Z,22.32
2022-09-10T07:37:07.359Z,21.84
2022-09-10T07:39:33.841Z,21.30
2022-09-10T07:42:00.454Z,21.77
2022-09-10T07:44:27.164Z,22.25
2022-09-10T07:46:53.822Z,22.44
2022-09-10T07:49:20.757Z,22.52
2022-09-10T07:51:47.307Z,22.19
2022-09-10T07:54:16.864Z,22.20
2022-09-10T07:56:43.352Z,22.10
2022-09-10T07:59:09.837Z,22.13
2022-09-10T08:01:37.728Z,22.53
2022-09-10T08:04:05.347Z,22.67
2022-09-10T08:06:32.227Z,22.55
2022-09-10T08:08:59.978Z,22.71
2022-09-10T08:11:26.494Z,23.01
2022-09-10T08:13:54.036Z,23.04
2022-09-10T08:16:25.261Z,23.72
2022-09-10T08:18:51.789Z,25.06
2022-09-10T08:21:19.219Z,24.75
2022-09-10T08:23:57.359Z,25.27
2022-09-10T08:26:25.438Z,26.23
2022-09-10T08:28:53.843Z,27.31
2022-09-10T08:31:20.288Z,27.64
2022-09-10T08:33:51.629Z,26.30
2022-09-10T08:36:19.098Z,26.22
2022-09-10T08:38:46.205Z,25.19
2022-09-10T08:41:35.644Z,25.73
2022-09-10T08:44:16.061Z,24.69
2022-09-10T08:46:49.805Z,25.46
2022-09-10T08:49:24.818Z,24.76
2022-09-10T08:51:57.065Z,25.00
2022-09-10T08:54:34.555Z,24.82
2022-09-10T08:57:02.229Z,24.49
2022-09-10T08:59:33.372Z,23.50
2022-09-10T09:02:31.907Z,23.83
2022-09-10T09:05:12.294Z,23.75
2022-09-10T09:07:40.145Z,24.47
2022-09-10T09:10:24.694Z,23.63
2022-09-10T09:12:51.125Z,24.15
2022-09-10T09:15:31.509Z,23.69
2022-09-10T09:18:20.461Z,23.30
2022-09-10T09:20:56.352Z,23.59
2022-09-10T09:24:02.663Z,23.08
2022-09-10T09:26:35.855Z,24.54
2022-09-10T09:29:05.894Z,25.08
2022-09-10T09:31:37.956Z,24.07
2022-09-10T09:34:26.417Z,23.46
2022-09-10T09:36:55.061Z,22.93
2022-09-10T09:39:30.599Z,23.41
2022-09-10T09:42:21.388Z,23.98
2022-09-10T09:45:02.930Z,24.19
2022-09-10T09:47:29.502Z,24.83
2022-09-10T09:49:56.209Z,24.55
2022-09-10T09:52:24.782Z,24.72
2022-09-10T09:55:15.700Z,24.70
2022-09-10T09:57:42.730Z,25.21
2022-09-10T10:00:35.985Z,25.11
2022-09-10T10:03:26.289Z,24.35
2022-09-10T10:06:02.292Z,24.58
2022-09-10T10:08:33.514Z,24.61
2022-09-10T10:11:00.504Z,24.25
2022-09-10T10:13:45.549Z,24.68
2022-09-10T10:16:33.652Z,24.92
2022-09-10T10:19:00.054Z,24.55
2022-09-10T10:21:33.008Z,24.27
2022-09-10T10:23:59.461Z,25.23
2022-09-10T10:26:36.041Z,25.52
2022-09-10T10:29:06.213Z,25.32
2022-09-10T10:31:44.412Z,25.11
2022-09-10T10:34:16.756Z,24.76
2022-09-10T10:37:03.473Z,25.37
2022-09-10T10:40:01.282Z,24.97
2022-09-10T10:42:53.831Z,25.43
2022-09-10T10:45:26.249Z,25.09
2022-09-10T10:48:20.479Z,25.21
2022-09-10T10:50:53.130Z,24.73
2022-09-10T10:53:52.015Z,24.63
2022-09-10T10:56:32.391Z,24.55
2022-09-10T10:59:23.487Z,24.94
2022-09-10T11:02:16.053Z,25.07
2022-09-10T11:04:54.539Z,25.51
2022-09-10T11:07:34.836Z,25.01
2022-09-10T11:10:14.926Z,24.36
2022-09-10T11:13:03.077Z,25.00
2022-09-10T11:15:44.837Z,24.82
2022-09-10T11:18:21.141Z,24.74
2022-09-10T11:21:20.366Z,24.17
2022-09-10T11:23:56.178Z,24.43
2022-09-10T11:26:43.694Z,24.79
2022-09-10T11:29:28.940Z,25.27
2022-09-10T11:32:22.363Z,24.62
2022-09-10T11:35:12.616Z,24.18
2022-09-10T11:37:43.226Z,24.41
2022-09-10T11:40:35.127Z,23.88
2022-09-10T11:43:19.627Z,24.12
2022-09-10T11:45:54.675Z,24.85
2022-09-10T11:48:33.036Z,24.95
2022-09-10T11:51:07.650Z,25.00
2022-09-10T11:53:36.927Z,24.51
2022-09-10T11:56:09.084Z,24.53
2022-09-10T11:58:59.923Z,24.49
2022-09-10T12:01:49.287Z,24.29
2022-09-10T12:04:40.470Z,24.04
2022-09-10T12:07:15.396Z,23.58
2022-09-10T12:10:18.383Z,24.24
2022-09-10T12:12:50.245Z,23.88
2022-09-10T12:15:27.267Z,24.11
2022-09-10T12:18:02.062Z,24.28
2022-09-10T12:20:33.115Z,24.28
2022-09-10T12:23:00.160Z,24.18
2022-09-10T12:25:34.150Z,24.12
2022-09-10T12:28:05.197Z,24.29
2022-09-10T12:30:33.248Z,24.07
2022-09-10T12:33:02.541Z,23.26
2022-09-10T12:35:31.855Z,24.23
2022-09-10T12:38:35.783Z,24.09
2022-09-10T12:41:04.415Z,24.33
2022-09-10T12:43:40.127Z,24.40
2022-09-10T12:46:06.720Z,24.11
2022-09-10T12:48:35.996Z,23.85
2022-09-10T12:51:24.919Z,24.54
2022-09-10T12:54:27.668Z,22.85
2022-09-10T12:57:23.563Z,24.06
2022-09-10T13:00:14.254Z,24.72
2022-09-10T13:02:58.208Z,23.40
2022-09-10T13:05:30.292Z,24.04
2022-09-10T13:08:11.820Z,24.17
2022-09-10T13:10:40.681Z,23.56
2022-09-10T13:13:34.178Z,24.21
2022-09-10T13:16:02.015Z,23.95
2022-09-10T13:18:36.637Z,24.59
2022-09-10T13:21:29.127Z,24.41
2022-09-10T13:23:57.225Z,24.16
2022-09-10T13:26:38.209Z,24.54
2022-09-10T13:29:39.563Z,24.29
2022-09-10T13:32:14.096Z,24.21
2022-09-10T13:34:59.142Z,24.60
2022-09-10T13:37:59.962Z,23.76
2022-09-10T13:40:56.083Z,24.15
2022-09-10T13:43:44.496Z,24.09
2022-09-10T13:46:20.339Z,24.51
2022-09-10T13:48:56.062Z,24.61
2022-09-10T13:51:25.523Z,24.63
2022-09-10T13:53:53.327Z,24.60
2022-09-10T13:56:25.534Z,24.25
2022-09-10T13:58:56.107Z,24.49
2022-09-10T14:01:55.828Z,24.34
2022-09-10T14:04:44.783Z,23.77
2022-09-10T14:07:14.430Z,23.78
2022-09-10T14:09:50.293Z,24.15
2022-09-10T14:12:20.784Z,23.89
2022-09-10T14:14:52.606Z,24.07
2022-09-10T14:17:35.222Z,24.06
2022-09-10T14:20:07.928Z,24.25
2022-09-10T14:22:37.634Z,23.91
2022-09-10T14:25:05.320Z,24.06
2022-09-10T14:27:34.880Z,24.15
2022-09-10T14:30:23.056Z,24.14
2022-09-10T14:32:50.922Z,23.69
2022-09-10T14:35:46.228Z,24.11
2022-09-10T14:38:36.118Z,24.17
2022-09-10T14:41:17.313Z,24.21
2022-09-10T14:43:43.747Z,23.88
2022-09-10T14:46:32.304Z,24.21
2022-09-10T14:48:58.698Z,23.69
2022-09-10T14:51:25.565Z,24.25
2022-09-10T14:53:57.023Z,24.49
2022-09-10T14:56:26.378Z,24.35
2022-09-10T14:59:01.610Z,23.54
2022-09-10T15:01:29.236Z,23.68
2022-09-10T15:03:56.058Z,23.92
2022-09-10T15:06:26.590Z,23.83
2022-09-10T15:08:55.852Z,24.34
2022-09-10T15:11:24.950Z,24.27
2022-09-10T15:13:52.584Z,24.34
2022-09-10T15:16:19.070Z,24.24
2022-09-10T15:18:45.522Z,22.94
2022-09-10T15:21:15.176Z,24.20
2022-09-10T15:23:42.173Z,24.21
2022-09-10T15:26:12.882Z,24.31
2022-09-10T15:28:39.786Z,23.85
2022-09-10T15:31:06.684Z,24.74
2022-09-10T15:33:33.553Z,24.39
2022-09-10T15:36:00.091Z,24.28
2022-09-10T15:38:26.662Z,23.41
2022-09-10T15:41:05.585Z,24.38
2022-09-10T15:43:37.550Z,24.06
2022-09-10T15:46:04.191Z,23.75
2022-09-10T15:48:33.379Z,23.69
2022-09-10T15:51:02.818Z,23.63
2022-09-10T15:53:32.050Z,23.54
2022-09-10T15:56:07.237Z,23.64
2022-09-10T15:58:35.329Z,23.45
2022-09-10T16:01:15.027Z,23.56
2022-09-10T16:04:03.808Z,22.88
2022-09-10T16:06:39.183Z,23.54
2022-09-10T16:09:09.047Z,23.73
2022-09-10T16:11:37.710Z,23.80
2022-09-10T16:14:09.545Z,23.82
2022-09-10T16:16:37.191Z,23.80
2022-09-10T16:19:04.443Z,23.77
2022-09-10T16:21:32.768Z,22.48
2022-09-10T16:24:00.937Z,23.46
2022-09-10T16:26:34.463Z,23.33
2022-09-10T16:29:03.419Z,23.50
2022-09-10T16:31:35.282Z,23.01
2022-09-10T16:34:04.579Z,23.33
2022-09-10T16:36:36.944Z,23.61
2022-09-10T16:39:06.099Z,23.54
2022-09-10T16:41:35.310Z,23.47
2022-09-10T16:44:01.954Z,23.07
2022-09-10T16:46:28.789Z,23.44
2022-09-10T16:48:56.815Z,23.76
2022-09-10T16:51:24.930Z,23.74
2022-09-10T16:54:05.762Z,23.78
2022-09-10T16:56:43.908Z,23.92
2022-09-10T16:59:14.822Z,23.77
2022-09-10T17:01:43.005Z,23.94
2022-09-10T17:04:18.053Z,23.93
2022-09-10T17:06:46.191Z,23.99
2022-09-10T17:09:13.954Z,23.08
2022-09-10T17:11:40.461Z,23.08
2022-09-10T17:14:08.179Z,23.14
2022-09-10T17:16:37.656Z,23.31
2022-09-10T17:19:15.064Z,23.47
2022-09-10T17:21:44.203Z,23.72
2022-09-10T17:24:12.664Z,23.68
2022-09-10T17:26:40.312Z,23.56
2022-09-10T17:29:12.662Z,23.65
2022-09-10T17:31:39.563Z,23.62
2022-09-10T17:34:06.804Z,23.68
2022-09-10T17:36:34.777Z,23.68
2022-09-10T17:39:01.179Z,23.67
2022-09-10T17:41:28.999Z,23.64
2022-09-10T17:43:57.634Z,23.65
2022-09-10T17:46:24.308Z,23.49
2022-09-10T17:48:51.417Z,23.34
2022-09-10T17:51:21.310Z,23.47
2022-09-10T17:53:47.750Z,23.40
2022-09-10T17:56:16.876Z,23.42
2022-09-10T17:58:43.350Z,23.40
2022-09-10T18:01:23.474Z,23.31
2022-09-10T18:03:50.926Z,23.16
2022-09-10T18:06:17.407Z,22.96
2022-09-10T18:08:43.962Z,22.89
2022-09-10T18:11:16.438Z,22.65
2022-09-10T18:13:44.444Z,22.37
2022-09-10T18:16:14.659Z,22.36
2022-09-10T18:18:41.142Z,22.63
2022-09-10T18:21:24.029Z,22.92
2022-09-10T18:24:01.631Z,22.83
2022-09-10T18:26:34.515Z,22.60
2022-09-10T18:29:07.699Z,22.58
2022-09-10T18:31:36.826Z,22.60
2022-09-10T18:34:05.173Z,22.63
2022-09-10T18:36:31.689Z,22.80
2022-09-10T18:39:02.097Z,22.93
2022-09-10T18:41:31.140Z,22.66
2022-09-10T18:44:00.663Z,22.56
2022-09-10T18:46:28.989Z,22.54
2022-09-10T18:48:56.304Z,22.68
2022-09-10T18:51:24.687Z,22.57
2022-09-10T18:53:59.917Z,22.41
2022-09-10T18:56:29.864Z,22.44
2022-09-10T18:59:04.590Z,22.45
2022-09-10T19:01:31.736Z,22.42
2022-09-10T19:03:58.797Z,22.38
2022-09-10T19:06:28.805Z,22.46
2022-09-10T19:08:57.799Z,22.69
2022-09-10T19:11:33.175Z,22.69
2022-09-10T19:14:01.671Z,22.57
2022-09-10T19:16:33.088Z,22.82
2022-09-10T19:19:05.383Z,22.92
2022-09-10T19:21:35.200Z,23.13
2022-09-10T19:24:02.388Z,23.25
2022-09-10T19:26:32.149Z,23.32
2022-09-10T19:29:00.249Z,23.37
2022-09-10T19:31:28.476Z,23.43
2022-09-10T19:34:05.908Z,23.24
2022-09-10T19:36:35.317Z,23.35
2022-09-10T19:39:06.760Z,23.50
2022-09-10T19:41:35.277Z,23.71
2022-09-10T19:44:02.466Z,23.73
2022-09-10T19:46:30.187Z,23.18
2022-09-10T19:48:59.382Z,22.81
2022-09-10T19:51:31.174Z,22.62
2022-09-10T19:54:02.163Z,22.65
2022-09-10T19:56:34.662Z,23.39
2022-09-10T19:59:02.572Z,23.56
2022-09-10T20:01:32.451Z,22.96
2022-09-10T20:04:04.934Z,22.85
2022-09-10T20:06:32.955Z,22.69
2022-09-10T20:08:59.604Z,22.79
2022-09-10T20:11:29.886Z,23.09
2022-09-10T20:13:59.428Z,23.41
2022-09-10T20:16:26.205Z,22.97
2022-09-10T20:18:53.149Z,23.19
2022-09-10T20:21:25.382Z,23.37
2022-09-10T20:23:55.469Z,23.06
2022-09-10T20:26:28.861Z,22.91
2022-09-10T20:29:04.065Z,23.00
2022-09-10T20:31:32.526Z,22.94
2022-09-10T20:34:01.143Z,22.60
2022-09-10T20:36:28.523Z,22.95
2022-09-10T20:38:56.143Z,22.75
2022-09-10T20:41:23.454Z,22.94
2022-09-10T20:43:53.564Z,22.79
2022-09-10T20:46:22.428Z,22.91
2022-09-10T20:48:50.885Z,22.69
2022-09-10T20:51:18.694Z,22.65
2022-09-10T20:53:45.561Z,22.63
2022-09-10T20:56:15.245Z,22.60
2022-09-10T20:58:42.079Z,22.34
2022-09-10T21:01:10.908Z,22.12
2022-09-10T21:03:38.086Z,22.19
2022-09-10T21:06:04.812Z,21.90
2022-09-10T21:08:31.693Z,21.83
2022-09-10T21:11:05.689Z,21.87
2022-09-10T21:13:36.216Z,21.87
2022-09-10T21:16:12.249Z,21.70
2022-09-10T21:18:41.679Z,21.51
2022-09-10T21:21:12.619Z,21.70
2022-09-10T21:23:43.998Z,21.74
2022-09-10T21:26:11.973Z,21.69
2022-09-10T21:28:39.217Z,21.69
2022-09-10T21:31:07.200Z,21.65
2022-09-10T21:33:34.559Z,21.62
2022-09-10T21:36:11.237Z,21.65
2022-09-10T21:38:38.367Z,21.47
2022-09-10T21:41:06.506Z,21.38
2022-09-10T21:43:34.754Z,21.44
2022-09-10T21:46:02.160Z,21.47
2022-09-10T21:48:30.103Z,21.42
2022-09-10T21:51:00.579Z,21.06
2022-09-10T21:53:27.763Z,20.97
2022-09-10T21:55:55.908Z,21.26
2022-09-10T21:58:23.501Z,21.07
2022-09-10T22:00:50.178Z,21.20
2022-09-10T22:03:16.981Z,21.21
2022-09-10T22:05:43.422Z,21.01
2022-09-10T22:08:09.816Z,21.17
2022-09-10T22:10:41.215Z,20.96
2022-09-10T22:13:08.438Z,20.90
2022-09-10T22:15:42.480Z,20.07
2022-09-10T22:18:09.410Z,19.82
2022-09-10T22:20:36.572Z,20.35
2022-09-10T22:23:03.994Z,20.72
2022-09-10T22:25:31.129Z,20.81
2022-09-10T22:28:00.556Z,20.86
2022-09-10T22:30:30.314Z,20.78
2022-09-10T22:32:57.608Z,20.80
2022-09-10T22:35:25.790Z,20.66
2022-09-10T22:37:56.449Z,20.31
2022-09-10T22:40:24.386Z,20.25
2022-09-10T22:42:51.628Z,19.39
2022-09-10T22:45:20.905Z,19.66
2022-09-10T22:47:50.506Z,20.27
2022-09-10T22:50:16.997Z,20.31
2022-09-10T22:52:44.244Z,19.83
2022-09-10T22:55:10.689Z,19.82
2022-09-10T22:57:39.467Z,20.09
2022-09-10T23:00:06.671Z,20.25
2022-09-10T23:02:33.064Z,20.41
2022-09-10T23:04:59.936Z,20.42
2022-09-10T23:07:26.325Z,20.37
2022-09-10T23:09:52.701Z,20.30
2022-09-10T23:12:21.223Z,20.33
2022-09-10T23:14:47.629Z,20.43
2022-09-10T23:17:16.064Z,20.40
2022-09-10T23:19:44.925Z,20.43
2022-09-10T23:22:11.425Z,20.40
2022-09-10T23:24:38.031Z,20.08
2022-09-10T23:27:04.719Z,20.38
2022-09-10T23:29:31.728Z,20.38
2022-09-10T23:31:58.133Z,20.31
2022-09-10T23:34:24.512Z,20.39
2022-09-10T23:36:52.263Z,20.41
2022-09-10T23:39:20.775Z,20.34
2022-09-10T23:41:48.239Z,20.35
2022-09-10T23:44:14.875Z,20.32
2022-09-10T23:46:41.315Z,20.33
2022-09-10T23:49:08.574Z,20.26
2022-09-10T23:51:35.219Z,20.21
2022-09-10T23:54:01.619Z,20.26
2022-09-10T23:56:28.950Z,20.14
2022-09-10T23:58:59.202Z,20.20
